createdAt,value
2022-12-25T00:00:49.661Z,1.85
2022-12-25T00:03:21.416Z,2.10
2022-12-25T00:05:52.787Z,2.00
2022-12-25T00:08:20.970Z,1.80
2022-12-25T00:10:49.213Z,2.33
2022-12-25T00:13:17.594Z,1.92
2022-12-25T00:15:46.040Z,1.92
2022-12-25T00:18:15.728Z,2.33
2022-12-25T00:20:44.093Z,2.15
2022-12-25T00:23:12.434Z,2.00
2022-12-25T00:25:42.386Z,1.77
2022-12-25T00:28:10.645Z,2.22
2022-12-25T00:30:41.154Z,1.73
2022-12-25T00:33:09.449Z,2.20
2022-12-25T00:35:39.364Z,2.40
2022-12-25T00:38:07.627Z,2.13
2022-12-25T00:40:42.444Z,2.03
2022-12-25T00:43:10.789Z,2.13
2022-12-25T00:45:39.384Z,2.92
2022-12-25T00:48:07.975Z,1.88
2022-12-25T00:50:36.217Z,2.75
2022-12-25T00:53:06.050Z,2.20
2022-12-25T00:55:34.331Z,2.50
2022-12-25T00:58:02.523Z,2.10
2022-12-25T01:00:30.767Z,2.00
2022-12-25T01:02:59.224Z,2.53
2022-12-25T01:05:27.624Z,2.08
2022-12-25T01:07:55.858Z,3.92
2022-12-25T01:10:27.609Z,2.50
2022-12-25T01:13:01.785Z,2.72
2022-12-25T01:15:33.507Z,2.47
2022-12-25T01:18:13.039Z,1.75
2022-12-25T01:20:42.509Z,5.38
2022-12-25T01:23:10.863Z,3.05
2022-12-25T01:25:51.919Z,2.40
2022-12-25T01:28:21.265Z,1.88
2022-12-25T01:30:50.340Z,2.90
2022-12-25T01:33:18.566Z,2.30
2022-12-25T01:35:46.905Z,3.65
2022-12-25T01:38:18.678Z,3.33
2022-12-25T01:40:52.456Z,3.30
2022-12-25T01:43:28.385Z,2.30
2022-12-25T01:45:58.251Z,2.00
2022-12-25T01:48:34.775Z,1.80
2022-12-25T01:51:19.637Z,3.78
2022-12-25T01:53:56.022Z,4.20
2022-12-25T01:56:31.221Z,4.47
2022-12-25T01:59:00.908Z,3.22
2022-12-25T02:01:29.257Z,5.05
2022-12-25T02:04:09.559Z,5.05
2022-12-25T02:06:41.591Z,3.55
2022-12-25T02:09:11.293Z,2.95
2022-12-25T02:11:59.137Z,1.63
2022-12-25T02:14:31.320Z,4.07
2022-12-25T02:17:08.684Z,3.53
2022-12-25T02:20:07.448Z,6.65
2022-12-25T02:22:45.463Z,11.32
2022-12-25T02:25:28.823Z,1.95
2022-12-25T02:28:09.497Z,4.05
2022-12-25T02:30:42.193Z,3.35
2022-12-25T02:33:32.448Z,3.13
2022-12-25T02:36:05.366Z,4.72
2022-12-25T02:38:38.290Z,3.63
2022-12-25T02:41:14.455Z,4.13
2022-12-25T02:44:03.229Z,2.63
2022-12-25T02:46:51.523Z,5.07
2022-12-25T02:49:41.380Z,2.72
2022-12-25T02:52:31.083Z,7.40
2022-12-25T02:55:20.960Z,4.60
2022-12-25T02:58:14.487Z,5.18
2022-12-25T03:01:05.149Z,3.25
2022-12-25T03:03:53.178Z,3.95
2022-12-25T03:06:39.644Z,3.13
2022-12-25T03:09:28.365Z,2.00
2022-12-25T03:12:01.704Z,2.22
2022-12-25T03:14:48.404Z,2.10
2022-12-25T03:17:18.346Z,2.42
2022-12-25T03:20:04.055Z,2.55
2022-12-25T03:22:50.942Z,2.80
2022-12-25T03:25:38.217Z,2.53
2022-12-25T03:28:08.212Z,2.33
2022-12-25T03:30:59.879Z,2.63
2022-12-25T03:33:46.932Z,2.63
2022-12-25T03:36:28.198Z,2.33
2022-12-25T03:39:21.918Z,1.98
2022-12-25T03:42:11.484Z,2.45
2022-12-25T03:45:07.760Z,2.78
2022-12-25T03:48:00.758Z,3.00
2022-12-25T03:50:53.324Z,2.35
2022-12-25T03:53:46.933Z,2.80
2022-12-25T03:56:46.527Z,2.10
2022-12-25T03:59:32.316Z,3.13
2022-12-25T04:02:18.733Z,2.30
2022-12-25T04:05:04.594Z,2.53
2022-12-25T04:07:51.416Z,3.42
2022-12-25T04:10:48.215Z,1.88
2022-12-25T04:13:34.127Z,2.45
2022-12-25T04:16:19.769Z,2.35
2022-12-25T04:19:05.377Z,3.90
2022-12-25T04:21:50.782Z,4.10
2022-12-25T04:24:38.325Z,2.13
2022-12-25T04:27:23.892Z,2.97
2022-12-25T04:30:09.870Z,2.30
2022-12-25T04:32:55.600Z,2.08
2022-12-25T04:35:44.141Z,2.25
2022-12-25T04:38:12.393Z,2.00
2022-12-25T04:40:42.126Z,2.05
2022-12-25T04:43:10.342Z,2.33
2022-12-25T04:45:38.731Z,2.50
2022-12-25T04:48:07.379Z,2.00
2022-12-25T04:50:35.545Z,2.40
2022-12-25T04:53:03.833Z,1.70
2022-12-25T04:55:32.015Z,1.83
2022-12-25T04:58:01.934Z,1.70
2022-12-25T05:00:30.175Z,2.17
2022-12-25T05:02:59.789Z,2.63
2022-12-25T05:05:28.192Z,1.73
2022-12-25T05:07:56.542Z,1.80
2022-12-25T05:10:25.395Z,1.92
2022-12-25T05:12:53.689Z,1.73
2022-12-25T05:15:26.530Z,1.70
2022-12-25T05:17:55.201Z,1.45
2022-12-25T05:20:23.984Z,2.22
2022-12-25T05:22:52.257Z,1.77
2022-12-25T05:25:20.539Z,1.50
2022-12-25T05:27:53.734Z,1.63
2022-12-25T05:30:23.816Z,3.85
2022-12-25T05:32:52.215Z,6.57
2022-12-25T05:35:20.460Z,10.45
2022-12-25T05:37:50.324Z,6.82
2022-12-25T05:40:18.613Z,3.92
2022-12-25T05:42:46.875Z,3.20
2022-12-25T05:45:15.417Z,2.35
2022-12-25T05:47:45.093Z,1.92
2022-12-25T05:50:13.532Z,1.80
2022-12-25T05:52:42.244Z,1.85
2022-12-25T05:55:10.641Z,2.10
2022-12-25T05:57:39.047Z,2.45
2022-12-25T06:00:09.420Z,2.20
2022-12-25T06:02:38.554Z,2.45
2022-12-25T06:05:10.039Z,2.20
2022-12-25T06:07:38.290Z,2.80
2022-12-25T06:10:07.794Z,2.67
2022-12-25T06:12:36.085Z,5.47
2022-12-25T06:15:05.536Z,5.90
2022-12-25T06:17:33.732Z,4.47
2022-12-25T06:20:02.025Z,2.60
2022-12-25T06:22:32.776Z,2.65
2022-12-25T06:25:01.348Z,2.85
2022-12-25T06:27:32.002Z,3.00
2022-12-25T06:30:00.808Z,2.55
2022-12-25T06:32:29.811Z,2.75
2022-12-25T06:35:03.284Z,3.08
2022-12-25T06:37:33.726Z,2.50
2022-12-25T06:40:02.295Z,2.10
2022-12-25T06:42:31.096Z,2.85
2022-12-25T06:44:59.423Z,2.58
2022-12-25T06:47:27.968Z,2.22
2022-12-25T06:49:56.381Z,2.58
2022-12-25T06:52:24.849Z,2.90
2022-12-25T06:54:55.266Z,2.85
2022-12-25T06:57:23.498Z,2.20
2022-12-25T06:59:55.799Z,3.28
2022-12-25T07:02:26.539Z,2.63
2022-12-25T07:04:55.200Z,3.40
2022-12-25T07:07:23.770Z,2.80
2022-12-25T07:09:52.076Z,2.28
2022-12-25T07:12:24.493Z,3.53
2022-12-25T07:14:55.750Z,3.20
2022-12-25T07:17:24.960Z,2.95
2022-12-25T07:19:53.992Z,3.05
2022-12-25T07:22:22.278Z,2.55
2022-12-25T07:24:50.587Z,2.92
2022-12-25T07:27:18.862Z,3.85
2022-12-25T07:29:48.629Z,3.42
2022-12-25T07:32:16.993Z,3.08
2022-12-25T07:34:45.293Z,3.17
2022-12-25T07:37:13.567Z,4.90
2022-12-25T07:39:42.060Z,3.60
2022-12-25T07:42:10.864Z,4.05
2022-12-25T07:44:39.101Z,4.20
2022-12-25T07:47:08.913Z,3.28
2022-12-25T07:49:37.855Z,3.55
2022-12-25T07:52:06.426Z,3.25
2022-12-25T07:54:34.921Z,3.10
2022-12-25T07:57:03.436Z,2.90
2022-12-25T07:59:31.923Z,3.35
2022-12-25T08:02:00.377Z,3.35
2022-12-25T08:04:30.405Z,3.45
2022-12-25T08:07:01.678Z,2.97
2022-12-25T08:09:30.898Z,3.38
2022-12-25T08:12:02.164Z,3.85
2022-12-25T08:14:32.069Z,3.17
2022-12-25T08:17:00.458Z,3.30
2022-12-25T08:19:31.327Z,3.92
2022-12-25T08:21:59.586Z,3.83
2022-12-25T08:24:28.607Z,3.58
2022-12-25T08:26:56.872Z,2.92
2022-12-25T08:29:25.202Z,3.22
2022-12-25T08:31:53.449Z,3.40
2022-12-25T08:34:22.858Z,4.43
2022-12-25T08:36:52.577Z,3.80
2022-12-25T08:39:21.363Z,4.20
2022-12-25T08:41:50.142Z,5.78
2022-12-25T08:44:18.450Z,6.50
2022-12-25T08:46:47.049Z,6.72
2022-12-25T08:49:16.516Z,4.90
2022-12-25T08:51:46.523Z,4.80
2022-12-25T08:54:16.713Z,4.57
2022-12-25T08:56:45.245Z,4.05
2022-12-25T08:59:13.788Z,3.97
2022-12-25T09:01:42.114Z,4.47
2022-12-25T09:04:10.444Z,3.75
2022-12-25T09:06:39.689Z,4.78
2022-12-25T09:09:07.941Z,3.92
2022-12-25T09:11:37.662Z,4.25
2022-12-25T09:14:06.016Z,3.40
2022-12-25T09:16:34.345Z,3.53
2022-12-25T09:19:02.642Z,3.72
2022-12-25T09:21:30.933Z,4.07
2022-12-25T09:23:59.230Z,3.90
2022-12-25T09:26:27.455Z,3.90
2022-12-25T09:28:57.211Z,3.88
2022-12-25T09:31:25.936Z,4.57
2022-12-25T09:33:58.570Z,3.40
2022-12-25T09:36:27.056Z,3.90
2022-12-25T09:38:55.351Z,4.25
2022-12-25T09:41:31.653Z,3.65
2022-12-25T09:44:05.484Z,4.53
2022-12-25T09:46:40.815Z,3.90
2022-12-25T09:49:17.489Z,5.25
2022-12-25T09:51:48.424Z,3.60
2022-12-25T09:54:22.376Z,4.40
2022-12-25T09:56:50.646Z,5.10
2022-12-25T09:59:25.715Z,3.90
2022-12-25T10:02:08.749Z,3.72
2022-12-25T10:04:54.850Z,3.88
2022-12-25T10:07:31.407Z,4.03
2022-12-25T10:10:12.391Z,4.03
2022-12-25T10:12:52.774Z,2.95
2022-12-25T10:15:33.045Z,3.90
2022-12-25T10:18:52.755Z,3.38
2022-12-25T10:21:22.071Z,3.45
2022-12-25T10:24:01.570Z,3.35
2022-12-25T10:26:34.161Z,3.17
2022-12-25T10:29:06.621Z,4.03
2022-12-25T10:31:38.678Z,3.17
2022-12-25T10:34:08.396Z,3.30
2022-12-25T10:36:37.243Z,3.70
2022-12-25T10:39:06.195Z,3.33
2022-12-25T10:41:54.556Z,4.15
2022-12-25T10:44:25.446Z,4.05
2022-12-25T10:46:58.028Z,3.70
2022-12-25T10:49:30.800Z,3.60
2022-12-25T10:51:59.275Z,3.00
2022-12-25T10:54:29.706Z,2.97
2022-12-25T10:57:01.333Z,3.80
2022-12-25T10:59:32.297Z,3.45
2022-12-25T11:02:15.930Z,3.28
2022-12-25T11:04:44.797Z,3.53
2022-12-25T11:07:23.276Z,3.03
2022-12-25T11:09:54.620Z,3.42
2022-12-25T11:12:42.507Z,3.30
2022-12-25T11:15:46.107Z,2.67
2022-12-25T11:19:02.456Z,3.28
2022-12-25T11:22:29.657Z,2.75
2022-12-25T11:25:01.509Z,3.08
2022-12-25T11:27:34.071Z,2.80
2022-12-25T11:30:08.866Z,2.65
2022-12-25T11:32:49.276Z,2.75
2022-12-25T11:35:20.414Z,2.88
2022-12-25T11:37:50.898Z,3.28
2022-12-25T11:40:22.034Z,3.20
2022-12-25T11:42:53.201Z,2.78
2022-12-25T11:45:27.294Z,2.72
2022-12-25T11:48:00.163Z,3.05
2022-12-25T11:50:33.593Z,2.85
2022-12-25T11:53:07.576Z,2.75
2022-12-25T11:55:45.748Z,2.80
2022-12-25T11:58:20.098Z,2.92
2022-12-25T12:00:51.619Z,3.10
2022-12-25T12:03:26.429Z,2.95
2022-12-25T12:06:06.591Z,2.00
2022-12-25T12:08:48.432Z,1.95
2022-12-25T12:11:23.683Z,2.28
2022-12-25T12:14:15.041Z,2.40
2022-12-25T12:16:44.292Z,2.15
2022-12-25T12:19:14.914Z,2.28
2022-12-25T12:21:50.659Z,2.28
2022-12-25T12:24:22.633Z,2.03
2022-12-25T12:27:03.989Z,2.10
2022-12-25T12:29:48.135Z,2.15
2022-12-25T12:32:37.362Z,2.05
2022-12-25T12:35:16.287Z,1.98
2022-12-25T12:37:50.651Z,2.20
2022-12-25T12:40:35.063Z,3.00
2022-12-25T12:43:03.897Z,2.53
2022-12-25T12:45:35.034Z,2.50
2022-12-25T12:48:14.896Z,2.47
2022-12-25T12:50:44.095Z,2.20
2022-12-25T12:53:30.118Z,2.38
2022-12-25T12:56:10.403Z,3.25
2022-12-25T12:58:45.320Z,2.35
2022-12-25T13:01:36.029Z,2.20
2022-12-25T13:04:24.700Z,3.10
2022-12-25T13:07:00.149Z,3.05
2022-12-25T13:09:42.133Z,3.10
2022-12-25T13:12:13.189Z,2.45
2022-12-25T13:14:46.370Z,2.58
2022-12-25T13:17:19.191Z,3.03
2022-12-25T13:19:48.691Z,2.92
2022-12-25T13:22:26.213Z,3.40
2022-12-25T13:25:09.644Z,3.28
2022-12-25T13:27:38.511Z,3.38
2022-12-25T13:30:18.564Z,2.67
2022-12-25T13:32:47.192Z,3.00
2022-12-25T13:35:17.806Z,3.17
2022-12-25T13:37:47.643Z,4.03
2022-12-25T13:40:27.114Z,4.47
2022-12-25T13:43:05.569Z,4.15
2022-12-25T13:45:40.238Z,4.18
2022-12-25T13:48:15.788Z,4.35
2022-12-25T13:50:48.650Z,4.38
2022-12-25T13:53:18.509Z,4.35
2022-12-25T13:55:53.496Z,3.97
2022-12-25T13:58:27.691Z,5.13
2022-12-25T14:01:02.346Z,4.65
2022-12-25T14:03:36.669Z,4.10
2022-12-25T14:06:07.887Z,3.92
2022-12-25T14:08:37.112Z,3.95
2022-12-25T14:11:08.607Z,4.75
2022-12-25T14:13:40.037Z,4.63
2022-12-25T14:16:09.193Z,4.28
2022-12-25T14:18:37.945Z,4.75
2022-12-25T14:21:08.484Z,5.07
2022-12-25T14:23:43.979Z,5.43
2022-12-25T14:26:18.863Z,4.80
2022-12-25T14:28:50.214Z,4.95
2022-12-25T14:31:19.352Z,4.82
2022-12-25T14:33:48.432Z,5.53
2022-12-25T14:36:17.057Z,5.38
2022-12-25T14:38:46.091Z,9.93
2022-12-25T14:41:33.734Z,5.80
2022-12-25T14:44:03.858Z,5.43
2022-12-25T14:46:33.541Z,6.50
2022-12-25T14:49:03.362Z,6.13
2022-12-25T14:51:32.788Z,5.97
2022-12-25T14:54:05.156Z,7.07
2022-12-25T14:56:39.303Z,6.18
2022-12-25T14:59:10.312Z,6.50
2022-12-25T15:01:41.324Z,6.30
2022-12-25T15:04:16.537Z,7.55
2022-12-25T15:06:54.921Z,6.68
2022-12-25T15:09:23.933Z,7.97
2022-12-25T15:11:56.218Z,7.45
2022-12-25T15:14:24.881Z,7.00
2022-12-25T15:16:55.173Z,7.88
2022-12-25T15:19:29.253Z,7.30
2022-12-25T15:22:00.590Z,7.43
2022-12-25T15:24:29.083Z,7.20
2022-12-25T15:27:00.610Z,7.03
2022-12-25T15:32:20.579Z,7.18
2022-12-25T15:34:50.243Z,7.30
2022-12-25T15:37:19.639Z,6.50
2022-12-25T15:39:48.405Z,7.65
2022-12-25T15:42:20.904Z,6.25
2022-12-25T15:44:49.789Z,6.85
2022-12-25T15:47:23.413Z,7.82
2022-12-25T15:49:52.236Z,7.32
2022-12-25T15:52:21.048Z,6.93
2022-12-25T15:54:49.604Z,6.15
2022-12-25T15:57:24.527Z,6.60
2022-12-25T15:59:53.449Z,7.18
2022-12-25T16:02:25.487Z,7.07
2022-12-25T16:04:55.163Z,7.47
2022-12-25T16:07:25.071Z,7.47
2022-12-25T16:09:53.485Z,7.18
2022-12-25T16:12:23.285Z,7.57
2022-12-25T16:14:51.579Z,7.50
2022-12-25T16:17:19.911Z,8.15
2022-12-25T16:19:48.313Z,7.13
2022-12-25T16:22:23.249Z,8.80
2022-12-25T16:24:51.822Z,7.20
2022-12-25T16:27:20.136Z,7.15
2022-12-25T16:29:50.066Z,8.38
2022-12-25T16:32:19.443Z,7.55
2022-12-25T16:34:50.069Z,8.48
2022-12-25T16:37:18.335Z,8.60
2022-12-25T16:39:46.619Z,8.35
2022-12-25T16:42:14.991Z,8.63
2022-12-25T16:44:43.476Z,8.40
2022-12-25T16:47:13.261Z,8.82
2022-12-25T16:49:41.517Z,10.00
2022-12-25T16:52:09.702Z,8.38
2022-12-25T16:54:38.323Z,7.22
2022-12-25T16:57:06.523Z,7.35
2022-12-25T16:59:35.902Z,7.70
2022-12-25T17:02:04.591Z,7.75
2022-12-25T17:04:34.499Z,7.57
2022-12-25T17:07:02.948Z,8.70
2022-12-25T17:09:31.656Z,9.00
2022-12-25T17:12:00.454Z,8.07
2022-12-25T17:14:28.752Z,6.78
2022-12-25T17:16:57.093Z,7.93
2022-12-25T17:19:25.318Z,8.93
2022-12-25T17:21:55.857Z,9.85
2022-12-25T17:24:24.657Z,9.40
2022-12-25T17:26:52.945Z,9.52
2022-12-25T17:29:22.639Z,9.43
2022-12-25T17:31:51.485Z,10.82
2022-12-25T17:34:19.919Z,10.20
2022-12-25T17:36:48.435Z,10.68
2022-12-25T17:39:19.292Z,10.18
2022-12-25T17:41:47.506Z,9.95
2022-12-25T17:44:22.876Z,11.25
2022-12-25T17:47:00.403Z,11.80
2022-12-25T17:49:28.837Z,9.70
2022-12-25T17:51:57.074Z,11.45
2022-12-25T17:54:27.571Z,11.00
2022-12-25T17:56:56.455Z,12.10
2022-12-25T17:59:29.698Z,9.93
2022-12-25T18:01:58.609Z,10.50
2022-12-25T18:04:27.011Z,11.27
2022-12-25T18:06:55.275Z,10.70
2022-12-25T18:09:23.568Z,9.68
2022-12-25T18:11:53.258Z,10.15
2022-12-25T18:14:21.608Z,9.05
2022-12-25T18:16:49.980Z,9.95
2022-12-25T18:19:19.873Z,10.77
2022-12-25T18:21:48.245Z,9.60
2022-12-25T18:24:16.511Z,9.90
2022-12-25T18:26:45.699Z,9.18
2022-12-25T18:29:15.527Z,9.00
2022-12-25T18:31:44.141Z,8.18
2022-12-25T18:34:12.684Z,8.95
2022-12-25T18:36:41.075Z,10.38
2022-12-25T18:39:12.456Z,10.00
2022-12-25T18:42:01.604Z,8.88
2022-12-25T18:44:33.151Z,9.82
2022-12-25T18:47:02.149Z,9.80
2022-12-25T18:49:31.016Z,8.90
2022-12-25T18:52:50.372Z,10.60
2022-12-25T18:54:48.561Z,9.13
2022-12-25T18:57:16.916Z,10.68
2022-12-25T18:59:47.109Z,8.20
2022-12-25T19:02:16.254Z,9.18
2022-12-25T19:04:48.119Z,10.25
2022-12-25T19:07:17.113Z,8.95
2022-12-25T19:09:46.033Z,9.68
2022-12-25T19:12:15.143Z,10.82
2022-12-25T19:14:48.242Z,10.02
2022-12-25T19:17:19.520Z,9.13
2022-12-25T19:19:48.145Z,10.07
2022-12-25T19:22:17.051Z,9.18
2022-12-25T19:24:46.081Z,9.77
2022-12-25T19:27:17.675Z,8.55
2022-12-25T19:29:46.770Z,10.73
2022-12-25T19:32:14.986Z,10.50
2022-12-25T19:34:44.739Z,9.63
2022-12-25T19:37:13.000Z,9.77
2022-12-25T19:39:46.382Z,10.27
2022-12-25T19:42:15.067Z,10.50
2022-12-25T19:44:43.715Z,10.38
2022-12-25T19:47:12.637Z,9.77
2022-12-25T19:49:41.819Z,9.82
2022-12-25T19:52:13.971Z,10.25
2022-12-25T19:54:42.376Z,9.40
2022-12-25T19:57:10.845Z,11.15
2022-12-25T19:59:39.323Z,9.98
2022-12-25T20:02:08.241Z,10.43
2022-12-25T20:04:36.774Z,10.75
2022-12-25T20:07:05.064Z,11.38
2022-12-25T20:09:35.683Z,11.50
2022-12-25T20:12:07.449Z,11.70
2022-12-25T20:14:36.251Z,11.05
2022-12-25T20:17:04.798Z,10.98
2022-12-25T20:19:36.663Z,12.48
2022-12-25T20:22:05.342Z,11.85
2022-12-25T20:24:35.575Z,12.02
2022-12-25T20:27:07.612Z,12.20
2022-12-25T20:29:37.043Z,12.27
2022-12-25T20:32:19.378Z,11.13
2022-12-25T20:35:31.927Z,10.80
2022-12-25T20:38:03.831Z,11.65
2022-12-25T20:40:52.994Z,11.25
2022-12-25T20:43:22.190Z,14.80
2022-12-25T20:45:53.249Z,13.60
2022-12-25T20:48:22.135Z,14.68
2022-12-25T20:50:51.397Z,15.02
2022-12-25T20:53:20.987Z,14.80
2022-12-25T20:55:52.475Z,14.05
2022-12-25T20:58:21.348Z,14.10
2022-12-25T21:00:52.921Z,13.65
2022-12-25T21:03:24.029Z,14.10
2022-12-25T21:05:54.138Z,27.75
2022-12-25T21:08:29.336Z,54.53
2022-12-25T21:11:01.724Z,38.13
2022-12-25T21:13:32.197Z,28.75
2022-12-25T21:16:00.954Z,19.17
2022-12-25T21:18:29.950Z,16.55
2022-12-25T21:21:00.954Z,17.17
2022-12-25T21:23:30.637Z,16.25
2022-12-25T21:26:00.254Z,15.32
2022-12-25T21:28:30.213Z,15.00
2022-12-25T21:31:03.677Z,14.77
2022-12-25T21:33:51.933Z,13.50
2022-12-25T21:36:22.608Z,13.82
2022-12-25T21:38:55.421Z,15.20
2022-12-25T21:41:26.242Z,15.38
2022-12-25T21:43:55.076Z,15.38
2022-12-25T21:46:23.702Z,15.65
2022-12-25T21:48:52.083Z,18.27
2022-12-25T21:51:40.132Z,15.95
2022-12-25T21:54:08.918Z,15.55
2022-12-25T21:56:44.638Z,15.75
2022-12-25T21:59:16.073Z,16.17
2022-12-25T22:01:45.690Z,17.63
2022-12-25T22:04:16.320Z,16.05
2022-12-25T22:07:02.174Z,16.55
2022-12-25T22:09:31.181Z,15.02
2022-12-25T22:12:22.177Z,15.98
2022-12-25T22:14:55.875Z,15.63
2022-12-25T22:17:44.349Z,16.02
2022-12-25T22:20:15.896Z,16.83
2022-12-25T22:22:45.493Z,14.57
2022-12-25T22:25:24.349Z,15.32
2022-12-25T22:27:55.051Z,16.52
2022-12-25T22:30:25.668Z,14.13
2022-12-25T22:32:54.496Z,16.60
2022-12-25T22:35:22.755Z,16.63
2022-12-25T22:37:51.356Z,15.45
2022-12-25T22:40:21.586Z,14.55
2022-12-25T22:42:50.137Z,16.08
2022-12-25T22:45:20.155Z,14.30
2022-12-25T22:47:48.552Z,15.85
2022-12-25T22:50:17.108Z,14.82
2022-12-25T22:52:46.899Z,14.85
2022-12-25T22:55:19.123Z,15.68
2022-12-25T22:57:49.316Z,15.90
2022-12-25T23:00:21.979Z,15.88
2022-12-25T23:02:50.986Z,16.42
2022-12-25T23:05:19.609Z,15.60
2022-12-25T23:07:47.909Z,17.83
2022-12-25T23:10:16.203Z,19.73
2022-12-25T23:13:01.754Z,19.90
2022-12-25T23:15:32.651Z,19.20
2022-12-25T23:18:18.159Z,20.10
2022-12-25T23:21:03.474Z,18.90
2022-12-25T23:23:48.868Z,18.90
2022-12-25T23:26:19.470Z,20.52
2022-12-25T23:29:05.701Z,20.90
2022-12-25T23:31:39.677Z,19.85
2022-12-25T23:34:08.748Z,21.55
2022-12-25T23:36:37.335Z,21.60
2022-12-25T23:39:10.080Z,20.08
2022-12-25T23:41:42.380Z,21.67
2022-12-25T23:44:11.943Z,22.63
2022-12-25T23:46:52.871Z,20.63
2022-12-25T23:49:22.070Z,22.52
2022-12-25T23:51:50.374Z,23.80
2022-12-25T23:54:21.504Z,24.00
2022-12-25T23:56:50.525Z,23.77
2022-12-25T23:59:19.213Z,22.58
